createdAt,value
2017-11-01T00:00:43.445Z,88.29
2017-11-01T00:06:46.921Z,88.07
2017-11-01T00:12:50.722Z,88.36
2017-11-01T00:18:54.441Z,88.37
2017-11-01T00:24:58.207Z,88.89
2017-11-01T00:31:01.900Z,89.13
2017-11-01T00:37:05.673Z,88.68
2017-11-01T00:43:09.126Z,88.87
2017-11-01T00:49:12.875Z,89.14
2017-11-01T00:55:16.601Z,89.40
2017-11-01T01:01:20.430Z,89.54
2017-11-01T01:07:24.239Z,89.45
2017-11-01T01:13:28.071Z,89.85
2017-11-01T01:19:32.338Z,89.98
2017-11-01T01:25:36.107Z,89.65
2017-11-01T01:31:39.831Z,89.47
2017-11-01T01:37:43.580Z,89.50
2017-11-01T01:43:47.351Z,89.32
2017-11-01T01:49:50.858Z,88.82
2017-11-01T01:55:54.308Z,89.54
2017-11-01T02:01:58.853Z,89.22
2017-11-01T02:08:02.648Z,89.29
2017-11-01T02:14:06.115Z,89.12
2017-11-01T02:20:09.590Z,89.96
2017-11-01T02:26:13.404Z,89.89
2017-11-01T02:32:16.850Z,90.20
2017-11-01T02:38:20.577Z,90.36
2017-11-01T02:44:24.376Z,90.18
2017-11-01T02:50:28.152Z,89.98
2017-11-01T02:56:31.595Z,90.37
2017-11-01T03:02:36.167Z,90.79
2017-11-01T03:08:39.956Z,91.01
2017-11-01T03:14:43.414Z,91.30
2017-11-01T03:20:47.212Z,91.43
2017-11-01T03:26:51.570Z,91.19
2017-11-01T03:32:55.013Z,90.94
2017-11-01T03:38:58.822Z,90.64
2017-11-01T03:45:02.613Z,90.78
2017-11-01T03:51:06.407Z,90.51
2017-11-01T03:57:10.145Z,90.26
2017-11-01T04:03:13.912Z,90.26
2017-11-01T04:09:17.708Z,90.25
2017-11-01T04:15:21.398Z,90.53
2017-11-01T04:21:27.687Z,90.59
2017-11-01T04:27:31.132Z,90.52
2017-11-01T04:33:34.587Z,90.57
2017-11-01T04:39:38.297Z,90.78
2017-11-01T04:45:42.093Z,90.38
2017-11-01T04:51:47.649Z,90.75
2017-11-01T04:57:53.268Z,90.69
2017-11-01T05:03:57.092Z,90.93
2017-11-01T05:10:00.537Z,91.01
2017-11-01T05:16:03.991Z,91.46
2017-11-01T05:22:07.753Z,91.45
2017-11-01T05:28:14.436Z,91.50
2017-11-01T05:34:17.891Z,91.39
2017-11-01T05:40:21.362Z,91.39
2017-11-01T05:46:25.243Z,91.59
2017-11-01T05:52:29.458Z,91.85
2017-11-01T05:58:33.299Z,92.00
2017-11-01T06:04:37.045Z,92.00
2017-11-01T06:10:40.746Z,92.12
2017-11-01T06:16:44.213Z,92.46
2017-11-01T06:22:48.751Z,92.54
2017-11-01T06:28:52.901Z,92.49
2017-11-01T06:34:57.118Z,92.30
2017-11-01T06:41:01.351Z,92.28
2017-11-01T06:47:05.592Z,92.17
2017-11-01T06:53:09.188Z,92.04
2017-11-01T06:59:12.646Z,92.03
2017-11-01T07:05:16.476Z,92.07
2017-11-01T07:11:19.928Z,92.17
2017-11-01T07:17:23.646Z,92.04
2017-11-01T07:23:27.082Z,92.30
2017-11-01T07:29:31.653Z,92.67
2017-11-01T07:35:35.647Z,92.62
2017-11-01T07:41:39.107Z,92.42
2017-11-01T07:47:43.342Z,92.40
2017-11-01T07:53:47.157Z,92.57
2017-11-01T07:59:50.612Z,92.48
2017-11-01T08:05:54.090Z,92.80
2017-11-01T08:11:58.637Z,92.88
2017-11-01T08:18:02.089Z,92.71
2017-11-01T08:24:06.315Z,92.61
2017-11-01T08:30:09.775Z,92.38
2017-11-01T08:36:14.344Z,92.15
2017-11-01T08:42:17.798Z,91.93
2017-11-01T08:48:21.489Z,92.12
2017-11-01T08:54:24.945Z,92.20
2017-11-01T09:00:29.259Z,92.23
2017-11-01T09:06:32.697Z,92.10
2017-11-01T09:12:36.159Z,92.29
2017-11-01T09:18:39.951Z,92.36
2017-11-01T09:24:43.409Z,91.97
2017-11-01T09:30:46.874Z,91.54
2017-11-01T09:36:51.104Z,91.47
2017-11-01T09:42:54.577Z,91.41
2017-11-01T09:48:58.042Z,91.50
2017-11-01T09:55:02.265Z,91.14
2017-11-01T10:01:06.081Z,91.06
2017-11-01T10:07:09.554Z,90.87
2017-11-01T10:13:13.086Z,90.62
2017-11-01T10:19:16.841Z,90.66
2017-11-01T10:25:20.432Z,90.69
2017-11-01T10:31:23.894Z,90.77
2017-11-01T10:37:27.338Z,90.42
2017-11-01T10:43:30.811Z,90.21
2017-11-01T10:49:34.281Z,90.37
2017-11-01T10:55:37.765Z,90.33
2017-11-01T11:01:41.476Z,90.54
2017-11-01T11:07:45.706Z,90.51
2017-11-01T11:13:49.185Z,90.36
2017-11-01T11:19:52.640Z,90.60
2017-11-01T11:25:57.014Z,90.47
2017-11-01T11:32:00.932Z,90.46
2017-11-01T11:38:04.419Z,90.42
2017-11-01T11:44:07.893Z,90.26
2017-11-01T11:50:11.354Z,90.13
2017-11-01T11:56:15.173Z,89.76
2017-11-01T12:02:18.638Z,89.78
2017-11-01T12:08:22.941Z,89.68
2017-11-01T12:14:26.393Z,89.69
2017-11-01T12:20:30.217Z,89.20
2017-11-01T12:26:33.706Z,88.96
2017-11-01T12:32:37.174Z,88.57
2017-11-01T12:38:40.649Z,88.83
2017-11-01T12:44:44.132Z,88.88
2017-11-01T12:50:47.613Z,88.73
2017-11-01T12:56:51.372Z,88.40
2017-11-01T13:02:55.635Z,87.99
2017-11-01T13:08:59.411Z,87.54
2017-11-01T13:15:03.124Z,87.33
2017-11-01T13:21:06.889Z,86.14
2017-11-01T13:27:10.381Z,86.99
2017-11-01T13:33:13.868Z,87.18
2017-11-01T13:39:17.364Z,86.45
2017-11-01T13:45:20.860Z,86.61
2017-11-01T13:51:24.624Z,86.76
2017-11-01T13:57:28.955Z,85.98
2017-11-01T14:03:32.818Z,85.22
2017-11-01T14:09:36.278Z,85.97
2017-11-01T14:15:39.729Z,85.84
2017-11-01T14:21:43.960Z,85.85
2017-11-01T14:27:47.765Z,86.96
2017-11-01T14:33:51.406Z,87.61
2017-11-01T14:39:54.872Z,87.58
2017-11-01T14:45:58.336Z,87.60
2017-11-01T14:52:02.132Z,87.87
2017-11-01T14:58:05.608Z,87.95
2017-11-01T15:04:09.396Z,87.40
2017-11-01T15:10:12.858Z,87.16
2017-11-01T15:16:16.676Z,87.39
2017-11-01T15:22:20.152Z,87.96
2017-11-01T15:41:28.665Z,90.02
2017-11-01T15:47:32.131Z,90.50
2017-11-01T15:53:35.617Z,90.83
2017-11-01T15:59:39.094Z,90.75
2017-11-01T16:05:42.922Z,91.26
2017-11-01T16:11:46.412Z,91.24
2017-11-01T16:17:49.876Z,91.42
2017-11-01T16:23:53.347Z,91.05
2017-11-01T16:29:56.815Z,90.97
2017-11-01T16:36:01.053Z,90.99
2017-11-01T16:42:04.845Z,91.23
2017-11-01T16:48:08.364Z,91.58
2017-11-01T16:54:11.825Z,92.01
2017-11-01T17:00:15.285Z,91.51
2017-11-01T17:06:19.901Z,91.38
2017-11-01T17:12:23.706Z,91.63
2017-11-01T17:18:27.306Z,91.90
2017-11-01T17:24:31.086Z,92.06
2017-11-01T17:30:34.554Z,91.81
2017-11-01T17:36:38.015Z,91.72
2017-11-01T17:42:41.452Z,91.67
2017-11-01T17:48:45.224Z,91.83
2017-11-01T17:54:48.705Z,91.79
2017-11-01T18:00:52.162Z,91.83
2017-11-01T18:06:55.623Z,91.28
2017-11-01T18:12:59.875Z,90.96
2017-11-01T18:19:03.457Z,90.37
2017-11-01T18:25:06.920Z,90.55
2017-11-01T18:31:10.386Z,90.81
2017-11-01T18:37:14.608Z,91.21
2017-11-01T18:43:18.434Z,91.25
2017-11-01T18:49:21.941Z,91.38
2017-11-01T18:55:25.414Z,91.43
2017-11-01T19:01:28.900Z,91.12
2017-11-01T19:07:32.370Z,91.29
2017-11-01T19:13:36.162Z,91.44
2017-11-01T19:19:39.645Z,91.21
2017-11-01T19:25:43.123Z,91.29
2017-11-01T19:31:46.629Z,91.49
2017-11-01T19:37:50.146Z,91.52
2017-11-01T19:43:54.365Z,91.96
2017-11-01T19:49:57.838Z,91.64
2017-11-01T19:56:01.669Z,91.56
2017-11-01T20:02:05.168Z,91.83
2017-11-01T20:08:08.635Z,92.07
2017-11-01T20:14:12.090Z,91.88
2017-11-01T20:20:15.586Z,91.69
2017-11-01T20:26:19.047Z,91.54
2017-11-01T20:32:23.197Z,91.65
2017-11-01T20:38:26.657Z,91.49
2017-11-01T20:44:30.138Z,91.58
2017-11-01T20:50:33.604Z,91.67
2017-11-01T20:56:37.064Z,91.77
2017-11-01T21:02:41.291Z,91.74
2017-11-01T21:08:44.881Z,91.57
2017-11-01T21:14:48.425Z,91.52
2017-11-01T21:20:51.969Z,91.49
2017-11-01T21:26:55.477Z,91.25
2017-11-01T21:32:58.977Z,91.27
2017-11-01T21:39:02.743Z,91.64
2017-11-01T21:45:06.213Z,91.65
2017-11-01T21:51:10.448Z,91.42
2017-11-01T21:57:13.932Z,91.33
2017-11-01T22:03:17.740Z,91.23
2017-11-01T22:09:21.292Z,91.20
2017-11-01T22:15:25.856Z,91.49
2017-11-01T22:21:29.321Z,91.22
2017-11-01T22:27:32.773Z,90.41
2017-11-01T22:33:36.998Z,89.71
2017-11-01T22:39:40.817Z,89.92
2017-11-01T22:45:44.569Z,89.35
2017-11-01T22:51:48.765Z,89.88
2017-11-01T22:57:53.847Z,90.56
2017-11-01T23:03:57.314Z,90.50
2017-11-01T23:10:00.772Z,90.75
2017-11-01T23:16:04.252Z,90.46
2017-11-01T23:22:08.071Z,89.47
2017-11-01T23:28:11.527Z,89.47
2017-11-01T23:34:15.370Z,89.37
2017-11-01T23:40:18.840Z,89.30
2017-11-01T23:46:23.045Z,88.83
2017-11-01T23:52:26.502Z,88.21
2017-11-01T23:58:29.972Z,88.78
